Time;durP1;ratioP1;P1;durP2;ratioP2;P2;SDS_P1;SDS_P2;PMS_P1;PMS_P2;Temp;Humidity;BMP_temperature;BMP_pressure;BME280_temperature;BME280_humidity;BME280_pressure;Samples;Min_cycle;Max_cycle;Signal;HPM_P1;HPM_P2
2022/03/09 00:01:44;;;;;;;11.73;7.07;;;;;;;;;;5089803;28;20821;-67
2022/03/09 00:04:11;;;;;;;12.37;6.27;;;;;;;;;;5091086;28;20470;-67
2022/03/09 00:06:39;;;;;;;13.87;6.30;;;;;;;;;;5090376;28;20456;-66
2022/03/09 00:09:06;;;;;;;10.23;6.10;;;;;;;;;;5091182;28;20445;-67
2022/03/09 00:11:33;;;;;;;13.57;6.30;;;;;;;;;;5090476;28;20532;-66
2022/03/09 00:14:00;;;;;;;8.67;6.93;;;;;;;;;;5088626;28;20523;-67
2022/03/09 00:16:28;;;;;;;10.93;6.27;;;;;;;;;;5090361;28;20453;-67
2022/03/09 00:18:56;;;;;;;11.73;6.50;;;;;;;;;;5090286;28;20876;-67
2022/03/09 00:21:23;;;;;;;9.10;6.03;;;;;;;;;;5089616;28;20463;-67
2022/03/09 00:23:50;;;;;;;8.93;5.93;;;;;;;;;;5090170;28;20449;-66
2022/03/09 00:26:18;;;;;;;12.27;5.50;;;;;;;;;;5090607;28;20857;-66
2022/03/09 00:28:45;;;;;;;10.03;6.00;;;;;;;;;;5089093;28;20475;-66
2022/03/09 00:31:12;;;;;;;8.60;6.57;;;;;;;;;;5090574;28;20883;-66
2022/03/09 00:33:39;;;;;;;9.97;5.60;;;;;;;;;;5089588;28;20486;-66
2022/03/09 00:36:08;;;;;;;11.67;6.77;;;;;;;;;;5090602;28;20450;-66
2022/03/09 00:38:35;;;;;;;11.93;6.33;;;;;;;;;;5090809;28;20453;-66
2022/03/09 00:41:02;;;;;;;9.83;6.77;;;;;;;;;;5087671;28;20446;-66
2022/03/09 00:43:29;;;;;;;8.87;6.07;;;;;;;;;;5084310;28;20451;-67
2022/03/09 00:45:57;;;;;;;8.90;5.90;;;;;;;;;;5090086;28;20941;-66
2022/03/09 00:48:24;;;;;;;10.80;5.67;;;;;;;;;;5089851;28;21088;-67
2022/03/09 00:50:51;;;;;;;8.93;5.77;;;;;;;;;;5091179;28;20459;-67
2022/03/09 00:53:20;;;;;;;12.80;6.10;;;;;;;;;;5090520;28;20482;-66
2022/03/09 00:55:47;;;;;;;6.87;5.33;;;;;;;;;;5090214;28;20441;-67
2022/03/09 00:58:14;;;;;;;10.20;6.37;;;;;;;;;;5090122;28;20455;-67
2022/03/09 01:00:41;;;;;;;9.60;5.80;;;;;;;;;;5090035;28;20530;-67
2022/03/09 01:03:09;;;;;;;9.00;6.10;;;;;;;;;;5090066;28;20540;-67
2022/03/09 01:05:36;;;;;;;11.07;5.73;;;;;;;;;;5089446;28;20526;-67
2022/03/09 01:08:03;;;;;;;10.00;5.97;;;;;;;;;;5088253;28;20564;-67
2022/03/09 01:10:31;;;;;;;9.77;5.60;;;;;;;;;;5089670;28;20526;-67
2022/03/09 01:12:59;;;;;;;10.17;6.33;;;;;;;;;;5089645;28;20530;-67
2022/03/09 01:15:26;;;;;;;8.40;5.63;;;;;;;;;;5089572;28;20478;-67
2022/03/09 01:17:53;;;;;;;10.37;6.63;;;;;;;;;;5090526;28;20465;-67
2022/03/09 01:20:20;;;;;;;10.63;6.10;;;;;;;;;;5089603;28;20894;-67
2022/03/09 01:22:47;;;;;;;9.23;5.67;;;;;;;;;;5088815;28;20450;-67
2022/03/09 01:25:15;;;;;;;9.63;7.10;;;;;;;;;;5090675;28;20534;-67
2022/03/09 01:27:43;;;;;;;11.37;7.00;;;;;;;;;;5090932;28;21006;-68
2022/03/09 01:30:11;;;;;;;8.57;5.33;;;;;;;;;;5084634;28;20944;-67
2022/03/09 01:32:38;;;;;;;8.80;5.40;;;;;;;;;;5093127;28;20531;-67
2022/03/09 01:35:05;;;;;;;8.97;5.40;;;;;;;;;;5093117;28;20440;-68
2022/03/09 01:37:33;;;;;;;8.50;5.90;;;;;;;;;;5093342;28;20850;-67
2022/03/09 01:40:00;;;;;;;14.03;6.37;;;;;;;;;;5094007;28;20485;-67
2022/03/09 01:42:27;;;;;;;9.13;6.20;;;;;;;;;;5092682;28;20931;-66
2022/03/09 01:45:00;;;;;;;9.57;5.90;;;;;;;;;;5093541;28;20538;-66
2022/03/09 01:47:28;;;;;;;11.20;5.80;;;;;;;;;;5087102;28;20470;-66
2022/03/09 01:49:55;;;;;;;6.57;5.10;;;;;;;;;;5093303;28;20473;-66
2022/03/09 01:52:22;;;;;;;10.20;6.83;;;;;;;;;;5093614;28;20450;-66
2022/03/09 01:54:49;;;;;;;8.37;5.47;;;;;;;;;;5093644;28;20489;-66
2022/03/09 01:57:17;;;;;;;9.23;6.30;;;;;;;;;;5093725;28;20440;-67
2022/03/09 01:59:44;;;;;;;8.40;6.10;;;;;;;;;;5092927;28;20455;-67
2022/03/09 02:02:12;;;;;;;10.13;6.60;;;;;;;;;;5090042;28;20456;-67
2022/03/09 02:04:40;;;;;;;9.20;5.77;;;;;;;;;;5092772;28;20490;-67
2022/03/09 02:07:09;;;;;;;8.50;5.73;;;;;;;;;;5092678;28;20452;-67
2022/03/09 02:09:41;;;;;;;9.07;5.30;;;;;;;;;;5092345;28;20451;-67
2022/03/09 02:12:09;;;;;;;9.53;6.10;;;;;;;;;;5092827;28;20441;-67
2022/03/09 02:14:37;;;;;;;10.90;6.20;;;;;;;;;;5092021;28;20442;-67
2022/03/09 02:17:05;;;;;;;13.13;6.67;;;;;;;;;;5092764;28;20779;-67
2022/03/09 02:19:34;;;;;;;8.23;5.60;;;;;;;;;;5091514;28;20539;-67
2022/03/09 02:22:04;;;;;;;11.87;6.00;;;;;;;;;;5092422;28;20464;-67
2022/03/09 02:24:33;;;;;;;9.33;6.07;;;;;;;;;;5091794;28;20525;-67
2022/03/09 02:27:00;;;;;;;11.03;6.33;;;;;;;;;;5092865;28;20569;-67
2022/03/09 02:29:27;;;;;;;10.43;5.87;;;;;;;;;;5091330;28;20478;-67
2022/03/09 02:31:55;;;;;;;8.43;5.80;;;;;;;;;;5086626;28;20987;-67
2022/03/09 02:34:22;;;;;;;7.87;5.20;;;;;;;;;;5092259;28;20535;-67
2022/03/09 02:36:49;;;;;;;8.53;5.90;;;;;;;;;;5091474;28;20868;-67
2022/03/09 02:39:16;;;;;;;10.40;5.97;;;;;;;;;;5092950;28;20480;-67
2022/03/09 02:41:45;;;;;;;7.30;5.57;;;;;;;;;;5092629;28;20458;-67
2022/03/09 02:44:12;;;;;;;8.00;5.70;;;;;;;;;;5092520;28;20448;-67
2022/03/09 02:46:39;;;;;;;13.13;6.60;;;;;;;;;;5091809;28;20523;-67
2022/03/09 02:49:06;;;;;;;17.63;6.33;;;;;;;;;;5085544;28;20510;-67
2022/03/09 02:51:34;;;;;;;8.53;5.77;;;;;;;;;;5085465;28;20452;-67
2022/03/09 02:54:01;;;;;;;15.83;6.30;;;;;;;;;;5085781;28;20554;-67
2022/03/09 02:56:28;;;;;;;10.03;5.97;;;;;;;;;;5086355;28;20545;-67
2022/03/09 02:58:57;;;;;;;9.30;5.87;;;;;;;;;;5092030;28;20445;-67
2022/03/09 03:01:24;;;;;;;11.27;6.50;;;;;;;;;;5091534;28;20448;-67
2022/03/09 03:03:51;;;;;;;10.63;6.63;;;;;;;;;;5092068;28;20438;-67
2022/03/09 03:06:18;;;;;;;8.77;5.20;;;;;;;;;;5092460;28;20533;-67
2022/03/09 03:08:46;;;;;;;12.30;4.80;;;;;;;;;;5091206;28;20546;-67
2022/03/09 03:11:13;;;;;;;8.30;5.50;;;;;;;;;;5091933;28;21359;-67
2022/03/09 03:13:41;;;;;;;11.07;7.03;;;;;;;;;;5090767;28;20446;-67
2022/03/09 03:16:10;;;;;;;7.93;5.20;;;;;;;;;;5091838;28;20458;-67
2022/03/09 03:18:38;;;;;;;15.50;6.70;;;;;;;;;;5091035;28;20454;-67
2022/03/09 03:21:05;;;;;;;10.40;5.70;;;;;;;;;;5091728;28;20465;-67
2022/03/09 03:23:33;;;;;;;9.07;6.23;;;;;;;;;;5090535;28;20451;-67
2022/03/09 03:26:01;;;;;;;9.50;6.17;;;;;;;;;;5091967;28;20445;-67
2022/03/09 03:28:28;;;;;;;9.53;6.20;;;;;;;;;;5090611;28;20908;-67
2022/03/09 03:30:55;;;;;;;6.63;5.00;;;;;;;;;;5091086;28;20476;-67
2022/03/09 03:33:24;;;;;;;13.70;5.57;;;;;;;;;;5090951;28;20449;-67
2022/03/09 03:35:51;;;;;;;15.80;6.33;;;;;;;;;;5091279;28;20536;-67
2022/03/09 03:38:18;;;;;;;9.73;5.80;;;;;;;;;;5091193;28;20462;-67
2022/03/09 03:40:46;;;;;;;11.10;6.50;;;;;;;;;;5090638;28;20451;-67
2022/03/09 03:43:13;;;;;;;9.10;5.10;;;;;;;;;;5091722;28;20621;-67
2022/03/09 03:45:41;;;;;;;9.63;5.77;;;;;;;;;;5090605;28;20451;-67
2022/03/09 03:48:08;;;;;;;11.93;5.77;;;;;;;;;;5091172;28;20905;-67
2022/03/09 03:50:36;;;;;;;4.40;3.80;;;;;;;;;;5090070;28;20522;-67
2022/03/09 03:53:04;;;;;;;10.80;6.13;;;;;;;;;;5087311;28;20526;-66
2022/03/09 03:55:31;;;;;;;9.67;6.23;;;;;;;;;;5089452;28;20441;-67
2022/03/09 03:57:58;;;;;;;9.33;6.00;;;;;;;;;;5091493;28;20441;-67
2022/03/09 04:00:26;;;;;;;8.50;5.97;;;;;;;;;;5089630;28;20445;-67
2022/03/09 04:02:53;;;;;;;8.70;5.73;;;;;;;;;;5091081;28;20455;-67
2022/03/09 04:05:20;;;;;;;10.20;6.97;;;;;;;;;;5086047;28;20527;-67
2022/03/09 04:07:49;;;;;;;9.20;5.20;;;;;;;;;;5090627;28;20527;-67
2022/03/09 04:10:16;;;;;;;6.77;5.00;;;;;;;;;;5090807;28;20886;-67
2022/03/09 04:12:43;;;;;;;6.80;5.10;;;;;;;;;;5090210;28;20476;-67
2022/03/09 04:15:10;;;;;;;8.37;5.30;;;;;;;;;;5090128;28;20452;-67
2022/03/09 04:17:42;;;;;;;9.03;5.47;;;;;;;;;;5089548;28;20536;-67
2022/03/09 04:20:10;;;;;;;8.57;5.67;;;;;;;;;;5090138;28;20479;-67
2022/03/09 04:22:37;;;;;;;9.53;5.00;;;;;;;;;;5089774;28;20446;-67
2022/03/09 04:25:07;;;;;;;7.53;5.07;;;;;;;;;;5089525;28;20433;-67
2022/03/09 04:27:34;;;;;;;7.93;4.80;;;;;;;;;;5089949;28;20556;-67
2022/03/09 04:30:01;;;;;;;7.37;5.70;;;;;;;;;;5089899;28;20564;-66
2022/03/09 04:32:28;;;;;;;7.63;5.13;;;;;;;;;;5089430;28;20449;-66
2022/03/09 04:34:55;;;;;;;8.33;5.03;;;;;;;;;;5088830;28;20975;-66
2022/03/09 04:37:22;;;;;;;11.83;5.57;;;;;;;;;;5090875;28;20849;-66
2022/03/09 04:39:50;;;;;;;12.63;5.57;;;;;;;;;;5089761;28;20508;-66
2022/03/09 04:42:18;;;;;;;7.60;5.33;;;;;;;;;;5090589;28;20446;-66
2022/03/09 04:44:45;;;;;;;7.47;5.07;;;;;;;;;;5082542;28;20458;-66
2022/03/09 04:47:12;;;;;;;9.73;5.70;;;;;;;;;;5088859;28;20480;-66
2022/03/09 04:49:40;;;;;;;7.70;5.13;;;;;;;;;;5087369;28;20480;-67
2022/03/09 04:52:07;;;;;;;8.87;4.90;;;;;;;;;;5091143;28;20451;-66
2022/03/09 04:54:34;;;;;;;7.10;5.10;;;;;;;;;;5089682;28;20971;-67
2022/03/09 04:57:01;;;;;;;14.03;5.60;;;3.50;1.00;;;;;;5090473;28;20865;-66
2022/03/09 04:59:30;;;;;;;11.83;5.10;;;-1.40;1.00;;;;;;5082208;28;20544;-67
2022/03/09 05:01:57;;;;;;;8.97;4.90;;;-1.60;1.00;;;;;;5084182;28;20861;-66
2022/03/09 05:04:23;;;;;;;13.70;4.60;;;-1.60;1.00;;;;;;5094236;28;20444;-67
2022/03/09 05:06:50;;;;;;;8.07;5.60;;;-1.60;1.00;;;;;;5094387;28;20903;-66
2022/03/09 05:09:17;;;;;;;7.87;4.40;;;-1.60;1.00;;;;;;5082640;28;20502;-65
2022/03/09 05:11:44;;;;;;;14.37;6.00;;;-1.60;1.00;;;;;;5093562;28;20533;-65
2022/03/09 05:14:11;;;;;;;7.33;5.23;;;-1.50;54.30;;;;;;5088118;28;20779;-67
2022/03/09 05:16:40;;;;;;;13.00;5.20;;;-1.40;1.00;;;;;;5092988;28;20559;-67
2022/03/09 05:19:07;;;;;;;11.27;6.03;;;-1.40;1.00;;;;;;5093967;28;20449;-67
2022/03/09 05:21:34;;;;;;;11.33;6.03;;;-1.20;1.00;;;;;;5080727;28;20527;-67
2022/03/09 05:24:01;;;;;;;9.53;6.10;;;-1.20;1.00;;;;;;5093931;28;20545;-66
2022/03/09 05:26:28;;;;;;;7.13;5.37;;;;;;;;;;5092983;28;20520;-67
2022/03/09 05:28:57;;;;;;;11.47;5.27;;;;;;;;;;5094231;28;20530;-67
2022/03/09 05:31:24;;;;;;;6.80;4.43;;;;;;;;;;5093993;28;20518;-67
2022/03/09 05:33:53;;;;;;;9.40;5.90;;;;;;;;;;5093334;28;20465;-67
2022/03/09 05:36:20;;;;;;;9.00;5.20;;;;;;;;;;5093824;28;20496;-68
2022/03/09 05:38:47;;;;;;;7.90;4.73;;;;;;;;;;5093261;28;20756;-68
2022/03/09 05:41:15;;;;;;;10.10;4.90;;;;;;;;;;5093936;28;20506;-68
2022/03/09 05:43:42;;;;;;;10.83;5.33;;;;;;;;;;5092585;28;20448;-66
2022/03/09 05:46:11;;;;;;;10.37;5.83;;;;;;;;;;5093827;28;20800;-67
2022/03/09 05:48:38;;;;;;;11.83;6.03;;;;;;;;;;5093216;28;20516;-67
2022/03/09 05:51:06;;;;;;;7.83;4.73;;;;;;;;;;5093641;28;20483;-67
2022/03/09 05:53:34;;;;;;;8.47;4.83;;;;;;;;;;5091624;28;20477;-67
2022/03/09 05:56:01;;;;;;;8.40;4.50;;;;;;;;;;5094049;28;20471;-67
2022/03/09 05:58:28;;;;;;;11.43;5.47;;;;;;;;;;5092734;28;20455;-67
2022/03/09 06:00:55;;;;;;;8.07;5.30;;;;;;;;;;5093698;28;20444;-68
2022/03/09 06:03:23;;;;;;;7.50;4.90;;;;;;;;;;5093200;28;20535;-67
2022/03/09 06:05:50;;;;;;;11.30;5.23;;;;;;;;;;5093887;28;20445;-67
2022/03/09 06:08:20;;;;;;;8.63;5.30;;;;;;;;;;5093404;28;20520;-67
2022/03/09 06:10:47;;;;;;;9.53;6.07;;;;;;;;;;5092891;28;20571;-68
2022/03/09 06:13:14;;;;;;;8.67;5.70;;;;;;;;;;5093040;28;20449;-67
2022/03/09 06:15:41;;;;;;;9.50;6.10;;;;;;;;;;5092663;28;20535;-68
2022/03/09 06:18:08;;;;;;;8.07;5.27;;;;;;;;;;5093358;28;20445;-67
2022/03/09 06:20:36;;;;;;;7.80;6.00;;;;;;;;;;5092204;28;20552;-67
2022/03/09 06:23:04;;;;;;;10.80;6.03;;;;;;;;;;5092530;28;20459;-67
2022/03/09 06:25:34;;;;;;;9.80;6.30;;;;;;;;;;5092208;28;20456;-67
2022/03/09 06:28:02;;;;;;;10.27;6.20;;;;;;;;;;5079516;28;20807;-67
2022/03/09 06:30:29;;;;;;;7.20;5.00;;;;;;;;;;5091993;28;20487;-67
2022/03/09 06:32:56;;;;;;;9.63;5.37;;;;;;;;;;5092807;28;20452;-68
2022/03/09 06:35:23;;;;;;;9.17;6.23;;;;;;;;;;5093084;28;20456;-67
2022/03/09 06:37:50;;;;;;;9.50;4.87;;;;;;;;;;5092524;28;20456;-67
2022/03/09 06:40:17;;;;;;;9.10;5.40;;;;;;;;;;5093011;28;20460;-67
2022/03/09 06:42:46;;;;;;;7.73;5.80;;;;;;;;;;5091939;28;20529;-67
2022/03/09 06:45:13;;;;;;;9.33;5.40;;;;;;;;;;5092877;28;20450;-67
2022/03/09 06:47:40;;;;;;;10.50;5.70;;;;;;;;;;5092670;28;20457;-67
2022/03/09 06:50:09;;;;;;;12.67;6.70;;;;;;;;;;5092645;28;20524;-67
2022/03/09 06:52:36;;;;;;;12.70;7.90;;;;;;;;;;5091414;28;20484;-67
2022/03/09 06:55:03;;;;;;;12.53;5.90;;;;;;;;;;5092547;28;20468;-68
2022/03/09 06:57:31;;;;;;;8.03;6.50;;;;;;;;;;5092104;28;20451;-67
2022/03/09 07:00:00;;;;;;;11.33;6.67;;;;;;;;;;5092475;28;20968;-67
2022/03/09 07:02:27;;;;;;;10.30;7.27;;;;;;;;;;5091398;28;20450;-68
2022/03/09 07:04:54;;;;;;;12.20;5.63;;;;;;;;;;5092300;28;20525;-68
2022/03/09 07:07:21;;;;;;;11.77;6.50;;;;;;;;;;5092442;28;20449;-67
2022/03/09 07:09:49;;;;;;;9.50;6.40;;;;;;;;;;5091800;28;20467;-67
2022/03/09 07:12:16;;;;;;;10.70;5.90;;;;;;;;;;5091959;28;20446;-68
2022/03/09 07:14:43;;;;;;;12.93;6.47;;;;;;;;;;5091116;28;20443;-68
2022/03/09 07:17:11;;;;;;;9.77;6.23;;;;;;;;;;5092178;28;20459;-68
2022/03/09 07:19:39;;;;;;;11.10;6.63;;;;;;;;;;5091398;28;20874;-67
2022/03/09 07:22:06;;;;;;;13.83;6.40;;;;;;;;;;5091730;28;20460;-68
2022/03/09 07:24:34;;;;;;;8.93;6.33;;;;;;;;;;5090781;28;20457;-68
2022/03/09 07:27:01;;;;;;;21.97;12.23;;;;;;;;;;5091645;28;20446;-68
2022/03/09 07:29:28;;;;;;;16.17;9.53;;;;;;;;;;5090619;28;20484;-68
2022/03/09 07:31:55;;;;;;;13.40;6.90;;;;;;;;;;5091308;28;20481;-68
2022/03/09 07:34:26;;;;;;;10.50;7.83;;;;;;;;;;5092079;28;20502;-68
2022/03/09 07:36:57;;;;;;;15.60;7.93;;;;;;;;;;5092111;28;21117;-67
2022/03/09 07:39:26;;;;;;;9.50;6.20;;;;;;;;;;5091418;28;20450;-67
2022/03/09 07:41:53;;;;;;;15.63;7.67;;;;;;;;;;5091256;28;20519;-68
2022/03/09 07:44:20;;;;;;;10.03;7.10;;;;;;;;;;5091854;28;20955;-68
2022/03/09 07:46:47;;;;;;;12.20;7.43;;;;;;;;;;5090856;28;20477;-67
2022/03/09 07:49:15;;;;;;;12.87;7.07;;;;;;;;;;5091783;28;20484;-67
2022/03/09 07:51:43;;;;;;;15.70;8.40;;;;;;;;;;5090535;28;20984;-68
2022/03/09 07:54:11;;;;;;;9.20;6.77;;;;;;;;;;5091349;28;21093;-68
2022/03/09 07:56:38;;;;;;;13.97;8.20;;;;;;;;;;5090800;28;20459;-67
2022/03/09 07:59:06;;;;;;;14.30;8.30;;;;;;;;;;5091809;28;20879;-67
2022/03/09 08:01:34;;;;;;;9.63;7.20;;;;;;;;;;5090359;28;20444;-68
2022/03/09 08:04:01;;;;;;;12.53;8.13;;;;;;;;;;5091385;28;20445;-67
2022/03/09 08:06:28;;;;;;;11.57;7.40;;;;;;;;;;5090388;28;20528;-67
2022/03/09 08:08:57;;;;;;;13.37;8.20;;;;;;;;;;5091353;28;20467;-67
2022/03/09 08:11:24;;;;;;;20.40;8.57;;;;;;;;;;5090499;28;20571;-68
2022/03/09 08:13:51;;;;;;;13.97;6.93;;;;;;;;;;5090834;28;20928;-68
2022/03/09 08:16:18;;;;;;;12.40;6.90;;;;;;;;;;5090907;28;20453;-68
2022/03/09 08:18:46;;;;;;;13.10;8.20;;;;;;;;;;5090056;28;20571;-68
2022/03/09 08:21:13;;;;;;;13.10;6.77;;;;;;;;;;5090409;28;20453;-68
2022/03/09 08:23:40;;;;;;;15.27;8.70;;;;;;;;;;5090014;28;20548;-68
2022/03/09 08:26:08;;;;;;;10.00;7.50;;;;;;;;;;5091025;28;20539;-68
2022/03/09 08:28:36;;;;;;;13.40;6.73;;;;;;;;;;5090540;28;20440;-69
2022/03/09 08:31:03;;;;;;;10.23;7.37;;;;;;;;;;5090872;28;20484;-69
2022/03/09 08:33:30;;;;;;;10.57;6.50;;;;;;;;;;5089476;28;20974;-68
2022/03/09 08:35:58;;;;;;;6.83;5.50;;;;;;;;;;5090011;28;20564;-69
2022/03/09 08:38:25;;;;;;;8.10;6.00;;;;;;;;;;5090530;28;20549;-68
2022/03/09 08:40:52;;;;;;;12.60;6.17;;;;;;;;;;5091274;28;20448;-68
2022/03/09 08:43:20;;;;;;;24.00;6.80;;;;;;;;;;5091006;28;20775;-68
2022/03/09 08:45:48;;;;;;;10.83;6.80;;;;;;;;;;5090488;28;20440;-68
2022/03/09 08:48:15;;;;;;;8.63;6.70;;;;;;;;;;5090555;28;20544;-68
2022/03/09 08:50:43;;;;;;;10.30;6.30;;;;;;;;;;5089989;28;20492;-67
2022/03/09 08:53:10;;;;;;;8.63;6.43;;;;;;;;;;5090071;28;20480;-67
2022/03/09 08:55:38;;;;;;;15.20;6.93;;;;;;;;;;5090524;28;20527;-68
2022/03/09 08:58:05;;;;;;;9.43;7.20;;;;;;;;;;5090892;28;20501;-68
2022/03/09 09:00:33;;;;;;;14.90;7.10;;;;;;;;;;5090192;28;20458;-67
2022/03/09 09:03:01;;;;;;;10.53;6.30;;;;;;;;;;5090403;28;20969;-67
2022/03/09 09:05:28;;;;;;;15.03;6.90;;;;;;;;;;5090312;28;20441;-67
2022/03/09 09:07:56;;;;;;;10.97;7.57;;;;;;;;;;5090610;28;20523;-67
2022/03/09 09:10:23;;;;;;;15.13;6.50;;;;;;;;;;5090756;28;20490;-68
2022/03/09 09:12:51;;;;;;;9.90;6.93;;;;;;;;;;5089515;28;20931;-68
2022/03/09 09:15:19;;;;;;;14.37;6.33;;;;;;;;;;5090636;28;20545;-68
2022/03/09 09:17:47;;;;;;;9.27;6.70;;;;;;;;;;5089772;28;20459;-68
2022/03/09 09:20:14;;;;;;;8.63;6.53;;;;;;;;;;5090460;28;20546;-68
2022/03/09 09:22:43;;;;;;;15.17;6.67;;;;;;;;;;5088875;28;20452;-67
2022/03/09 09:25:10;;;;;;;13.13;7.93;;;;;;;;;;5090465;28;20506;-67
2022/03/09 09:27:37;;;;;;;11.93;7.80;;;;;;;;;;5089642;28;20476;-68
2022/03/09 09:30:05;;;;;;;12.33;7.23;;;-1.30;1.00;;;;;;5090361;28;20480;-67
2022/03/09 09:32:32;;;;;;;13.00;8.30;;;5.80;31.40;;;;;;5089181;28;20448;-68
2022/03/09 09:35:00;;;;;;;11.10;8.70;;;5.80;23.00;;;;;;5090492;28;20523;-68
2022/03/09 09:37:27;;;;;;;10.43;7.73;;;6.00;23.90;;;;;;5089978;28;20538;-68
2022/03/09 09:39:54;;;;;;;13.80;7.53;;;6.20;20.20;;;;;;5090631;28;20543;-68
2022/03/09 09:42:30;;;;;;;12.40;7.20;;;6.30;18.20;;;;;;5090404;28;20558;-68
2022/03/09 09:45:00;;;;;;;10.60;6.90;;;6.40;15.40;;;;;;5090545;28;20448;-68
2022/03/09 09:47:27;;;;;;;10.60;6.97;;;6.50;11.70;;;;;;5092458;28;20800;-68
2022/03/09 09:49:55;;;;;;;10.57;6.40;;;6.60;11.20;;;;;;5093818;28;20484;-68
2022/03/09 09:52:25;;;;;;;8.87;6.70;;;6.80;8.40;;;;;;5093225;28;20502;-68
2022/03/09 09:54:54;;;;;;;11.37;7.90;;;6.80;6.50;;;;;;5093927;28;20873;-68
2022/03/09 09:57:22;;;;;;;11.37;8.10;;;;;;;;;;5094137;28;20443;-68
2022/03/09 09:59:49;;;;;;;9.60;7.00;;;;;;;;;;5093584;28;20801;-68
2022/03/09 10:02:16;;;;;;;11.23;7.33;;;;;;;;;;5093541;28;20476;-68
2022/03/09 10:04:44;;;;;;;10.43;8.13;;;;;;;;;;5092832;28;20708;-68
2022/03/09 10:07:11;;;;;;;17.70;9.73;;;;;;;;;;5093513;28;20537;-67
2022/03/09 10:09:41;;;;;;;11.87;7.40;;;;;;;;;;5092633;28;20532;-67
2022/03/09 10:12:09;;;;;;;11.13;8.47;;;;;;;;;;5093355;28;20470;-67
2022/03/09 10:14:44;;;;;;;12.17;7.43;;;;;;;;;;5092687;28;20444;-67
2022/03/09 10:17:11;;;;;;;12.00;7.70;;;;;;;;;;5093419;28;20519;-69
2022/03/09 10:19:40;;;;;;;12.37;8.40;;;;;;;;;;5092174;28;20452;-69
2022/03/09 10:22:28;;;;;;;9.50;7.33;;;;;;;;;;5092356;28;20460;-69
2022/03/09 10:24:58;;;;;;;9.87;8.13;;;;;;;;;;5086949;28;21012;-68
2022/03/09 10:27:35;;;;;;;12.80;9.10;;;;;;;;;;5092508;28;20444;-68
2022/03/09 10:30:02;;;;;;;10.77;8.27;;;;;;;;;;5093282;28;20479;-68
2022/03/09 10:32:49;;;;;;;13.90;8.97;;;;;;;;;;5091745;28;20451;-68
2022/03/09 10:35:17;;;;;;;12.00;8.90;;;;;;;;;;5092975;28;20531;-68
2022/03/09 10:37:45;;;;;;;15.07;9.20;;;;;;;;;;5079194;28;20441;-68
2022/03/09 10:40:15;;;;;;;15.33;8.70;;;;;;;;;;5092883;28;20959;-67
2022/03/09 10:42:42;;;;;;;12.17;8.27;;;;;;;;;;5092024;28;20485;-67
2022/03/09 10:45:10;;;;;;;16.97;8.80;;;;;;;;;;5092499;28;20488;-67
2022/03/09 10:47:39;;;;;;;14.53;9.90;;;;;;;;;;5092343;28;20867;-67
2022/03/09 10:50:11;;;;;;;13.10;9.93;;;;;;;;;;5092660;28;20888;-68
2022/03/09 10:52:45;;;;;;;12.70;9.00;;;;;;;;;;5091620;28;20445;-68
2022/03/09 10:55:25;;;;;;;13.20;8.87;;;;;;;;;;5072219;28;20452;-68
2022/03/09 10:57:52;;;;;;;12.10;9.33;;;;;;;;;;5071541;28;20531;-68
2022/03/09 11:00:34;;;;;;;15.57;8.27;;;;;;;;;;5072434;28;20449;-68
2022/03/09 11:03:05;;;;;;;18.23;9.40;;;;;;;;;;5071964;28;20453;-69
2022/03/09 11:05:33;;;;;;;16.13;9.53;;;;;;;;;;5072271;28;20799;-67
2022/03/09 11:08:00;;;;;;;15.67;10.50;;;;;;;;;;5072030;28;20445;-67
2022/03/09 11:10:29;;;;;;;12.43;8.70;;;;;;;;;;5071345;28;20576;-67
2022/03/09 11:12:57;;;;;;;13.27;9.00;;;;;;;;;;5071467;28;20457;-67
2022/03/09 11:15:24;;;;;;;15.47;9.70;;;;;;;;;;5071875;28;20456;-67
2022/03/09 11:17:52;;;;;;;13.80;10.10;;;;;;;;;;5071539;28;20490;-67
2022/03/09 11:20:19;;;;;;;13.70;10.40;;;;;;;;;;5072096;28;20797;-67
2022/03/09 11:22:47;;;;;;;19.93;11.70;;;;;;;;;;5070287;28;20438;-67
2022/03/09 11:25:14;;;;;;;12.97;9.10;;;;;;;;;;5071862;28;20464;-68
2022/03/09 11:27:47;;;;;;;16.00;9.67;;;;;;;;;;5070982;28;20794;-68
2022/03/09 11:30:25;;;;;;;13.33;11.13;;;;;;;;;;5071303;28;20945;-68
2022/03/09 11:32:54;;;;;;;16.47;11.00;;;;;;;;;;5071044;28;20453;-68
2022/03/09 11:35:36;;;;;;;15.03;9.73;;;;;;;;;;5071528;28;20453;-68
2022/03/09 11:38:04;;;;;;;15.63;10.23;;;;;;;;;;5069275;28;21011;-68
2022/03/09 11:40:31;;;;;;;17.77;11.47;;;;;;;;;;5071189;28;20471;-68
2022/03/09 11:43:21;;;;;;;15.40;10.70;;;;;;;;;;5071542;28;20859;-69
2022/03/09 11:45:51;;;;;;;20.13;11.57;;;;;;;;;;5071442;28;20441;-68
2022/03/09 11:48:20;;;;;;;15.37;10.83;;;;;;;;;;5071961;28;20445;-68
2022/03/09 11:51:10;;;;;;;17.83;11.13;;;;;;;;;;5070944;28;20473;-67
2022/03/09 11:53:39;;;;;;;13.47;9.90;;;;;;;;;;5071518;28;20545;-69
2022/03/09 11:56:24;;;;;;;16.13;11.17;;;;;;;;;;5091916;28;20820;-68
2022/03/09 11:59:27;;;;;;;15.47;11.60;;;;;;;;;;5078691;28;20448;-68
2022/03/09 12:02:17;;;;;;;15.10;11.20;;;;;;;;;;5008910;28;20460;-68
2022/03/09 12:04:50;;;;;;;18.20;10.77;;;;;;;;;;5008633;28;20609;-68
2022/03/09 12:07:34;;;;;;;22.80;11.50;;;;;;;;;;5062918;28;20440;-68
2022/03/09 12:10:02;;;;;;;16.70;10.50;;;;;;;;;;5075383;28;20462;-68
2022/03/09 12:12:30;;;;;;;17.17;10.57;;;;;;;;;;5089766;28;20980;-68
2022/03/09 12:15:00;;;;;;;15.83;10.80;;;;;;;;;;5091103;28;20527;-68
2022/03/09 12:17:34;;;;;;;14.93;9.93;;;;;;;;;;5090442;28;20773;-68
2022/03/09 12:20:17;;;;;;;15.40;11.07;;;;;;;;;;5078989;28;21110;-68
2022/03/09 12:23:03;;;;;;;14.87;10.23;;;;;;;;;;5089354;28;20962;-68
2022/03/09 12:25:36;;;;;;;16.30;10.97;;;;;;;;;;5090435;28;20455;-69
2022/03/09 12:28:18;;;;;;;18.00;12.03;;;;;;;;;;5090934;28;20482;-69
2022/03/09 12:30:47;;;;;;;17.97;11.23;;;;;;;;;;5089057;28;20704;-68
2022/03/09 12:33:23;;;;;;;14.80;10.00;;;;;;;;;;5090201;28;20480;-68
2022/03/09 12:35:50;;;;;;;12.03;9.93;;;;;;;;;;5090216;28;20471;-67
2022/03/09 12:38:18;;;;;;;15.43;9.90;;;;;;;;;;5091118;28;20445;-68
2022/03/09 12:40:46;;;;;;;14.73;10.07;;;;;;;;;;5090530;28;20834;-68
2022/03/09 12:43:13;;;;;;;15.90;9.90;;;;;;;;;;5090452;28;20625;-67
2022/03/09 12:45:51;;;;;;;13.27;8.80;;;;;;;;;;5090039;28;20437;-67
2022/03/09 12:48:18;;;;;;;11.63;8.80;;;;;;;;;;5091483;28;20536;-68
2022/03/09 12:50:47;;;;;;;14.33;10.37;;;;;;;;;;5089903;28;20459;-68
2022/03/09 12:53:19;;;;;;;17.70;10.50;;;;;;;;;;5090484;28;20552;-69
2022/03/09 12:55:47;;;;;;;12.20;9.27;;;;;;;;;;5077313;28;20453;-69
2022/03/09 12:58:21;;;;;;;14.63;10.30;;;;;;;;;;5091226;28;20540;-69
2022/03/09 13:00:49;;;;;;;15.13;10.03;;;;;;;;;;5090099;28;20448;-69
2022/03/09 13:03:17;;;;;;;12.97;9.67;;;;;;;;;;5090488;28;20541;-69
2022/03/09 13:05:44;;;;;;;16.10;11.27;;;;;;;;;;5090054;28;20502;-69
2022/03/09 13:08:14;;;;;;;16.30;10.43;;;;;;;;;;5090201;28;20444;-69
2022/03/09 13:10:43;;;;;;;13.20;10.10;;;;;;;;;;5089999;28;20806;-68
2022/03/09 13:13:10;;;;;;;14.20;10.50;;;;;;;;;;5090570;28;20451;-68
2022/03/09 13:15:39;;;;;;;13.47;10.10;;;;;;;;;;5089591;28;20531;-68
2022/03/09 13:18:06;;;;;;;15.10;9.80;;;;;;;;;;5090216;28;20536;-68
2022/03/09 13:20:34;;;;;;;13.17;9.50;;;;;;;;;;5089812;28;20456;-68
2022/03/09 13:23:01;;;;;;;15.10;10.43;;;;;;;;;;5093302;28;20881;-68
2022/03/09 13:25:33;;;;;;;11.83;9.77;;;;;;;;;;5093374;28;20539;-68
2022/03/09 13:28:01;;;;;;;14.33;9.90;;;;;;;;;;5080848;28;20483;-68
2022/03/09 13:30:28;;;;;;;15.13;10.60;;;;;;;;;;5093219;28;20839;-68
2022/03/09 13:32:56;;;;;;;16.80;11.50;;;;;;;;;;5080069;28;20491;-68
2022/03/09 13:35:24;;;;;;;17.23;11.30;;;;;;;;;;5094131;28;20694;-68
2022/03/09 13:38:00;;;;;;;15.30;9.57;;;;;;;;;;5094294;28;20448;-68
2022/03/09 13:40:28;;;;;;;11.93;9.60;;;;;;;;;;5093213;28;20443;-68
2022/03/09 13:42:58;;;;;;;13.00;9.70;;;;;;;;;;5093749;28;20535;-68
2022/03/09 13:45:28;;;;;;;14.70;10.67;;;;;;;;;;5093732;28;20856;-68
2022/03/09 13:47:56;;;;;;;13.87;9.80;;;;;;;;;;5094588;28;20499;-68
2022/03/09 13:50:24;;;;;;;15.47;9.87;;;;;;;;;;5093339;28;20454;-68
2022/03/09 13:52:52;;;;;;;15.87;10.70;;;;;;;;;;5093183;28;20515;-67
2022/03/09 13:55:20;;;;;;;14.23;10.47;;;;;;;;;;5094383;28;20932;-68
2022/03/09 13:57:48;;;;;;;15.60;9.87;;;;;;;;;;5093632;28;20525;-68
2022/03/09 14:00:27;;;;;;;14.30;10.93;;;;;;;;;;5093842;28;20483;-69
2022/03/09 14:02:55;;;;;;;15.90;10.50;;;;;;;;;;5093668;28;20444;-68
2022/03/09 14:05:29;;;;;;;15.67;10.80;;;;;;;;;;5093878;28;20457;-68
2022/03/09 14:07:57;;;;;;;14.13;10.47;;;;;;;;;;5093361;28;20543;-68
2022/03/09 14:10:26;;;;;;;14.67;9.93;;;;;;;;;;5093198;28;21013;-68
2022/03/09 14:12:54;;;;;;;16.90;11.40;;;;;;;;;;5092666;28;20869;-68
2022/03/09 14:15:21;;;;;;;13.80;9.97;;;;;;;;;;5093348;28;20451;-68
2022/03/09 14:17:50;;;;;;;14.27;11.27;;;;;;;;;;5093235;28;20453;-67
2022/03/09 14:20:18;;;;;;;16.50;11.07;;;;;;;;;;5093265;28;20862;-67
2022/03/09 14:22:46;;;;;;;16.50;12.30;;;;;;;;;;5092088;28;20441;-67
2022/03/09 14:25:14;;;;;;;15.77;12.07;;;;;;;;;;5093371;28;20530;-68
2022/03/09 14:27:41;;;;;;;17.00;12.57;;;;;;;;;;5092457;28;20498;-68
2022/03/09 14:30:10;;;;;;;13.87;10.47;;;;;;;;;;5092847;28;20440;-69
2022/03/09 14:32:37;;;;;;;17.27;11.90;;;;;;;;;;5090657;28;20472;-69